createdAt,value
2022-08-03T03:24:33.505Z,1.00
2022-08-03T03:25:33.500Z,1.00
2022-08-03T03:26:33.484Z,1.00
2022-08-03T03:27:33.473Z,1.00
2022-08-03T03:34:33.397Z,2.00
2022-08-03T03:35:39.013Z,2.00
2022-08-03T03:36:34.399Z,2.00
2022-08-03T03:40:33.336Z,2.00
2022-08-03T03:41:33.832Z,1.00
2022-08-03T03:42:33.319Z,5.00
2022-08-03T03:43:33.305Z,7.00
2022-08-03T03:44:33.296Z,13.00
2022-08-03T03:45:33.287Z,5.00
2022-08-03T03:46:33.279Z,4.00
2022-08-03T03:47:33.266Z,6.00
2022-08-03T03:48:33.255Z,11.00
2022-08-03T03:49:33.293Z,13.00
2022-08-03T03:50:33.236Z,14.00
2022-08-03T03:51:33.223Z,13.00
2022-08-03T03:52:33.209Z,24.00
2022-08-03T03:53:33.203Z,19.00
2022-08-03T03:54:33.193Z,19.00
2022-08-03T03:55:33.185Z,26.00
2022-08-03T03:56:33.172Z,30.00
2022-08-03T03:57:33.160Z,38.00
2022-08-03T03:58:33.155Z,44.00
2022-08-03T03:59:33.142Z,48.00
2022-08-03T04:00:33.189Z,63.00
2022-08-03T04:01:33.120Z,86.00
2022-08-03T04:02:33.111Z,93.00
2022-08-03T04:03:33.103Z,112.00
2022-08-03T04:04:33.092Z,138.00
2022-08-03T04:05:33.081Z,159.00
2022-08-03T04:06:33.073Z,185.00
2022-08-03T04:07:33.056Z,216.00
2022-08-03T04:08:33.051Z,248.00
2022-08-03T04:09:33.034Z,286.00
2022-08-03T04:10:33.026Z,320.00
2022-08-03T04:11:33.017Z,359.00
2022-08-03T04:12:33.002Z,403.00
2022-08-03T04:13:33.002Z,437.00
2022-08-03T04:14:32.981Z,479.00
2022-08-03T04:15:32.975Z,518.00
2022-08-03T04:16:32.964Z,564.00
2022-08-03T04:17:32.953Z,611.00
2022-08-03T04:18:32.944Z,643.00
2022-08-03T04:19:32.932Z,701.00
2022-08-03T04:20:32.920Z,756.00
2022-08-03T04:21:32.913Z,809.00
2022-08-03T04:22:32.902Z,866.00
2022-08-03T04:23:32.893Z,926.00
2022-08-03T04:24:32.880Z,985.00
2022-08-03T04:25:32.874Z,1038.00
2022-08-03T04:26:32.910Z,1106.00
2022-08-03T04:27:32.850Z,1155.00
2022-08-03T04:28:32.838Z,1222.00
2022-08-03T04:29:32.829Z,1288.00
2022-08-03T04:30:32.818Z,1368.00
2022-08-03T04:31:32.807Z,1415.00
2022-08-03T04:32:32.801Z,1488.00
2022-08-03T04:33:32.791Z,1553.00
2022-08-03T04:34:32.881Z,1622.00
2022-08-03T04:35:58.658Z,1683.00
2022-08-03T04:36:33.779Z,1770.00
2022-08-03T04:37:32.751Z,1846.00
2022-08-03T04:38:32.740Z,1916.00
2022-08-03T04:39:32.778Z,1980.00
2022-08-03T04:40:32.720Z,2057.00
2022-08-03T04:41:32.705Z,2131.00
2022-08-03T04:42:33.717Z,2193.00
2022-08-03T04:43:32.689Z,2256.00
2022-08-03T04:44:32.675Z,2332.00
2022-08-03T04:45:32.667Z,2407.00
2022-08-03T04:46:32.656Z,2483.00
2022-08-03T04:47:32.749Z,2555.00
2022-08-03T04:48:32.635Z,2633.00
2022-08-03T04:49:32.695Z,2703.00
2022-08-03T04:50:32.618Z,2784.00
2022-08-03T04:51:32.605Z,2848.00
2022-08-03T04:52:32.591Z,2923.00
2022-08-03T04:53:32.583Z,3008.00
2022-08-03T04:54:32.572Z,3079.00
2022-08-03T04:55:32.561Z,3154.00
2022-08-03T04:56:32.551Z,3230.00
2022-08-03T04:57:32.551Z,3294.00
2022-08-03T04:58:32.533Z,3375.00
2022-08-03T04:59:32.526Z,3437.00
2022-08-03T05:00:32.511Z,3489.00
2022-08-03T05:01:32.650Z,3569.00
2022-08-03T05:02:32.540Z,3644.00
2022-08-03T05:03:32.484Z,3699.00
2022-08-03T05:04:32.571Z,3760.00
2022-08-03T05:05:48.976Z,3827.00
2022-08-03T05:06:33.480Z,3882.00
2022-08-03T05:07:36.227Z,3943.00
2022-08-03T05:08:32.432Z,4006.00
2022-08-03T05:09:49.994Z,4076.00
2022-08-03T05:10:32.412Z,4128.00
2022-08-03T05:11:32.403Z,4189.00
2022-08-03T05:12:33.146Z,4240.00
2022-08-03T05:13:32.383Z,4297.00
2022-08-03T05:14:32.372Z,4349.00
2022-08-03T05:15:32.413Z,4412.00
2022-08-03T05:16:32.351Z,4496.00
2022-08-03T05:17:32.341Z,4516.00
2022-08-03T05:18:32.437Z,4572.00
2022-08-03T05:19:32.320Z,4620.00
2022-08-03T05:20:32.311Z,4678.00
2022-08-03T05:21:52.113Z,4749.00
2022-08-03T05:22:32.291Z,4788.00
2022-08-03T05:23:32.284Z,4846.00
2022-08-03T05:24:32.271Z,4900.00
2022-08-03T05:25:32.266Z,4945.00
2022-08-03T05:26:32.271Z,5003.00
2022-08-03T05:27:32.251Z,5046.00
2022-08-03T05:28:32.232Z,5088.00
2022-08-03T05:29:32.320Z,5133.00
2022-08-03T05:30:34.133Z,5183.00
2022-08-03T05:31:32.200Z,5226.00
2022-08-03T05:32:32.190Z,5273.00
2022-08-03T05:33:32.181Z,5310.00
2022-08-03T05:34:32.221Z,5346.00
2022-08-03T05:36:01.701Z,5398.00
2022-08-03T05:36:32.149Z,5434.00
2022-08-03T05:37:32.141Z,5472.00
2022-08-03T05:38:34.628Z,5511.00
2022-08-03T05:39:32.117Z,5561.00
2022-08-03T05:40:32.106Z,5604.00
2022-08-03T05:41:36.585Z,5642.00
2022-08-03T05:42:32.082Z,5686.00
2022-08-03T05:43:32.078Z,5726.00
2022-08-03T05:44:32.066Z,5758.00
2022-08-03T05:45:32.055Z,5792.00
2022-08-03T05:46:32.046Z,5828.00
2022-08-03T05:47:32.035Z,5869.00
2022-08-03T05:48:32.020Z,5904.00
2022-08-03T05:49:32.049Z,5940.00
2022-08-03T05:50:32.001Z,5979.00
2022-08-03T05:51:31.987Z,6012.00
2022-08-03T05:52:31.979Z,6049.00
2022-08-03T05:53:31.967Z,6095.00
2022-08-03T05:54:56.186Z,6127.00
2022-08-03T05:55:32.967Z,6161.00
2022-08-03T05:56:31.936Z,6200.00
2022-08-03T05:57:31.924Z,6231.00
2022-08-03T05:58:31.914Z,6283.00
2022-08-03T05:59:38.860Z,6313.00
2022-08-03T06:00:32.915Z,6354.00
2022-08-03T06:01:31.924Z,6393.00
2022-08-03T06:02:31.869Z,6416.00
2022-08-03T06:03:31.862Z,6452.00
2022-08-03T06:04:31.851Z,6481.00
2022-08-03T06:05:31.839Z,6523.00
2022-08-03T06:06:32.404Z,6565.00
2022-08-03T06:07:31.819Z,6586.00
2022-08-03T06:08:31.809Z,6628.00
2022-08-03T06:10:33.275Z,6660.00
2022-08-03T06:10:37.241Z,6696.00
2022-08-03T06:11:31.777Z,6723.00
2022-08-03T06:12:31.766Z,6769.00
2022-08-03T06:13:31.754Z,6797.00
2022-08-03T06:14:31.743Z,6824.00
2022-08-03T06:15:31.731Z,6843.00
2022-08-03T06:16:31.721Z,6885.00
2022-08-03T06:17:37.368Z,6923.00
2022-08-03T06:18:32.927Z,6933.00
2022-08-03T06:19:31.693Z,6961.00
2022-08-03T06:20:31.685Z,6988.00
2022-08-03T06:21:31.671Z,7031.00
2022-08-03T06:22:31.658Z,7052.00
2022-08-03T06:23:52.893Z,7088.00
2022-08-03T06:24:32.659Z,7098.00
2022-08-03T06:25:31.626Z,7122.00
2022-08-03T06:26:31.618Z,7144.00
2022-08-03T06:27:37.399Z,7164.00
2022-08-03T06:28:51.678Z,7190.00
2022-08-03T06:29:32.606Z,7214.00
2022-08-03T06:30:31.574Z,7230.00
2022-08-03T06:31:33.142Z,7248.00
2022-08-03T06:32:31.560Z,7270.00
2022-08-03T06:34:30.508Z,7301.00
2022-08-03T06:34:35.769Z,7319.00
2022-08-03T06:35:31.520Z,7347.00
2022-08-03T06:36:31.512Z,7366.00
2022-08-03T06:37:31.500Z,7365.00
2022-08-03T06:38:31.489Z,7384.00
2022-08-03T06:39:31.481Z,7388.00
2022-08-03T06:40:31.483Z,7412.00
2022-08-03T06:41:31.458Z,7431.00
2022-08-03T06:42:32.469Z,7428.00
2022-08-03T06:43:31.435Z,7417.00
2022-08-03T06:44:31.427Z,7412.00
2022-08-03T06:45:31.727Z,7386.00
2022-08-03T06:46:31.408Z,7361.00
2022-08-03T06:47:31.396Z,7300.00
2022-08-03T06:48:31.384Z,7265.00
2022-08-03T06:49:31.411Z,7247.00
2022-08-03T06:50:31.370Z,7230.00
2022-08-03T06:52:04.538Z,7248.00
2022-08-03T06:52:37.693Z,7276.00
2022-08-03T06:53:32.354Z,7336.00
2022-08-03T06:54:33.217Z,7494.00
2022-08-03T06:55:31.316Z,7729.00
2022-08-03T06:56:31.309Z,7894.00
2022-08-03T06:57:31.298Z,7969.00
2022-08-03T06:58:31.288Z,8001.00
2022-08-03T07:00:10.822Z,8011.00
2022-08-03T07:00:31.261Z,8047.00
2022-08-03T07:01:31.343Z,8078.00
2022-08-03T07:02:31.242Z,8115.00
2022-08-03T07:03:31.241Z,8123.00
2022-08-03T07:04:31.224Z,8158.00
2022-08-03T07:05:31.225Z,8143.00
2022-08-03T07:06:31.203Z,8253.00
2022-08-03T07:07:31.198Z,8287.00
2022-08-03T07:08:33.388Z,8316.00
2022-08-03T07:09:31.171Z,8347.00
2022-08-03T07:10:31.164Z,8367.00
2022-08-03T07:11:31.152Z,8408.00
2022-08-03T07:12:31.142Z,8437.00
2022-08-03T07:13:31.131Z,8455.00
2022-08-03T07:14:31.166Z,8492.00
2022-08-03T07:15:55.421Z,8531.00
2022-08-03T07:16:31.098Z,8558.00
2022-08-03T07:17:31.108Z,8602.00
2022-08-03T07:18:31.078Z,8643.00
2022-08-03T07:19:31.068Z,8665.00
2022-08-03T07:20:32.705Z,8713.00
2022-08-03T07:21:31.050Z,8774.00
2022-08-03T07:22:31.039Z,8817.00
2022-08-03T07:23:31.030Z,8878.00
2022-08-03T07:24:31.019Z,8905.00
2022-08-03T07:25:31.008Z,8944.00
2022-08-03T07:26:31.001Z,8983.00
2022-08-03T07:27:30.989Z,9017.00
2022-08-03T07:28:30.978Z,9030.00
2022-08-03T07:29:30.966Z,9073.00
2022-08-03T07:30:30.959Z,9067.00
2022-08-03T07:31:34.269Z,9105.00
2022-08-03T07:32:31.038Z,9154.00
2022-08-03T07:33:30.930Z,9208.00
2022-08-03T07:34:30.919Z,9287.00
2022-08-03T07:35:30.906Z,9316.00
2022-08-03T07:36:30.897Z,9383.00
2022-08-03T07:37:30.888Z,9420.00
2022-08-03T07:38:30.879Z,9421.00
2022-08-03T07:39:30.867Z,9453.00
2022-08-03T07:40:31.944Z,9484.00
2022-08-03T07:41:30.849Z,9488.00
2022-08-03T07:42:30.836Z,9541.00
2022-08-03T07:43:30.826Z,9562.00
2022-08-03T07:44:30.815Z,9603.00
2022-08-03T07:45:30.801Z,9620.00
2022-08-03T07:46:30.796Z,9676.00
2022-08-03T07:47:34.832Z,9748.00
2022-08-03T07:48:30.778Z,9775.00
2022-08-03T07:49:30.880Z,9879.00
2022-08-03T07:50:30.752Z,9875.00
2022-08-03T07:51:30.746Z,10001.00
2022-08-03T07:52:30.731Z,10439.00
2022-08-03T07:53:30.722Z,10985.00
2022-08-03T07:54:30.714Z,11349.00
2022-08-03T07:55:30.710Z,11566.00
2022-08-03T07:56:30.693Z,11631.00
2022-08-03T07:57:30.685Z,11640.00
2022-08-03T07:58:30.678Z,11730.00
2022-08-03T07:59:30.666Z,11811.00
2022-08-03T08:00:31.689Z,11920.00
2022-08-03T08:01:30.722Z,12190.00
2022-08-03T08:02:30.633Z,12266.00
2022-08-03T08:03:30.623Z,12351.00
2022-08-03T08:04:31.630Z,12228.00
2022-08-03T08:05:30.603Z,12134.00
2022-08-03T08:06:30.596Z,12186.00
2022-08-03T08:07:30.582Z,12095.00
2022-08-03T08:08:30.571Z,12287.00
2022-08-03T08:09:30.561Z,12032.00
2022-08-03T08:10:30.552Z,12002.00
2022-08-03T08:11:30.542Z,11486.00
2022-08-03T08:12:30.533Z,11767.00
2022-08-03T08:13:30.523Z,11969.00
2022-08-03T08:14:30.514Z,11571.00
2022-08-03T08:15:30.507Z,12578.00
2022-08-03T08:16:30.492Z,12816.00
2022-08-03T08:17:30.485Z,12802.00
2022-08-03T08:18:30.469Z,12910.00
2022-08-03T08:19:30.678Z,12886.00
2022-08-03T08:20:31.671Z,12992.00
2022-08-03T08:21:53.633Z,13123.00
2022-08-03T08:22:31.480Z,12923.00
2022-08-03T08:23:42.854Z,13269.00
2022-08-03T08:24:30.413Z,13691.00
2022-08-03T08:25:30.402Z,13689.00
2022-08-03T08:26:30.397Z,13849.00
2022-08-03T08:28:29.648Z,13870.00
2022-08-03T08:28:33.743Z,13731.00
2022-08-03T08:29:30.364Z,13669.00
2022-08-03T08:30:30.357Z,13725.00
2022-08-03T08:31:30.345Z,13836.00
2022-08-03T08:32:30.335Z,13993.00
2022-08-03T08:33:47.883Z,14050.00
2022-08-03T08:34:31.335Z,14265.00
2022-08-03T08:35:30.302Z,14392.00
2022-08-03T08:36:30.290Z,14198.00
2022-08-03T08:37:30.282Z,14526.00
2022-08-03T08:38:30.273Z,14366.00
2022-08-03T08:39:30.261Z,14525.00
2022-08-03T08:40:30.251Z,14324.00
2022-08-03T08:41:32.153Z,14305.00
2022-08-03T08:42:30.233Z,14434.00
2022-08-03T08:43:30.219Z,14590.00
2022-08-03T08:44:30.211Z,14762.00
2022-08-03T08:45:30.292Z,14950.00
2022-08-03T08:46:30.189Z,15546.00
2022-08-03T08:47:30.178Z,15745.00
2022-08-03T08:48:31.194Z,15779.00
2022-08-03T08:49:30.333Z,15479.00
2022-08-03T08:50:30.217Z,15071.00
2022-08-03T08:51:54.536Z,15193.00
2022-08-03T08:52:32.155Z,15367.00
2022-08-03T08:53:30.125Z,15502.00
2022-08-03T08:54:30.113Z,15169.00
2022-08-03T08:55:30.228Z,14680.00
2022-08-03T08:56:30.095Z,14400.00
2022-08-03T08:57:42.266Z,14254.00
2022-08-03T08:58:30.079Z,14138.00
2022-08-03T08:59:47.620Z,13767.00
2022-08-03T09:00:31.078Z,13683.00
2022-08-03T09:01:30.115Z,13672.00
2022-08-03T09:02:30.038Z,13657.00
2022-08-03T09:03:31.062Z,13809.00
2022-08-03T09:04:30.020Z,13848.00
2022-08-03T09:05:53.944Z,13719.00
2022-08-03T09:06:31.019Z,13778.00
2022-08-03T09:07:30.402Z,13675.00
2022-08-03T09:08:30.001Z,13593.00
2022-08-03T09:10:04.815Z,13560.00
2022-08-03T09:10:30.988Z,13548.00
2022-08-03T09:12:00.991Z,13505.00
2022-08-03T09:12:41.853Z,13601.00
2022-08-03T09:13:30.951Z,13625.00
2022-08-03T09:14:36.697Z,13692.00
2022-08-03T09:15:30.933Z,13698.00
2022-08-03T09:16:29.905Z,13757.00
2022-08-03T09:17:29.896Z,13835.00
2022-08-03T09:18:32.206Z,13910.00
2022-08-03T09:19:29.878Z,13972.00
2022-08-03T09:20:29.868Z,14035.00
2022-08-03T09:21:32.498Z,14087.00
2022-08-03T09:22:29.847Z,14142.00
2022-08-03T09:23:51.653Z,14218.00
2022-08-03T09:24:41.204Z,14290.00
2022-08-03T09:25:30.842Z,14317.00
2022-08-03T09:26:29.810Z,14319.00
2022-08-03T09:27:29.799Z,14353.00
2022-08-03T09:29:00.037Z,14442.00
2022-08-03T09:29:30.803Z,14514.00
2022-08-03T09:30:34.066Z,14624.00
2022-08-03T09:31:29.775Z,14628.00
2022-08-03T09:32:29.752Z,14663.00
2022-08-03T09:33:36.176Z,14743.00
2022-08-03T09:34:30.754Z,14771.00
2022-08-03T09:35:53.691Z,14829.00
2022-08-03T09:36:30.739Z,14816.00
2022-08-03T09:38:12.680Z,14857.00
2022-08-03T09:38:30.716Z,14842.00
2022-08-03T09:39:41.361Z,14882.00
2022-08-03T09:40:30.705Z,14952.00
2022-08-03T09:41:29.672Z,14986.00
2022-08-03T09:42:29.664Z,15066.00
2022-08-03T09:43:29.653Z,15079.00
2022-08-03T09:44:29.644Z,15040.00
2022-08-03T09:45:29.635Z,15089.00
2022-08-03T09:46:29.628Z,15171.00
2022-08-03T09:47:29.621Z,15313.00
2022-08-03T09:48:29.613Z,15326.00
2022-08-03T09:49:29.628Z,15514.00
2022-08-03T09:50:29.587Z,15600.00
2022-08-03T09:52:25.895Z,15652.00
2022-08-03T09:52:39.439Z,15851.00
2022-08-03T09:53:30.584Z,15910.00
2022-08-03T09:54:29.559Z,15910.00
2022-08-03T09:56:33.818Z,16064.00
2022-08-03T09:56:36.435Z,16170.00
2022-08-03T09:57:30.547Z,16318.00
2022-08-03T09:58:29.520Z,16335.00
2022-08-03T09:59:29.526Z,16396.00
2022-08-03T10:00:29.499Z,16412.00
2022-08-03T10:01:29.547Z,16569.00
2022-08-03T10:02:29.483Z,16692.00
2022-08-03T10:03:29.475Z,16788.00
2022-08-03T10:04:29.471Z,16822.00
2022-08-03T10:05:29.455Z,16846.00
2022-08-03T10:06:29.447Z,16916.00
2022-08-03T10:07:29.435Z,17007.00
2022-08-03T10:08:29.428Z,17033.00
2022-08-03T10:09:29.418Z,17134.00
2022-08-03T10:10:32.038Z,17110.00
2022-08-03T10:11:29.403Z,17143.00
2022-08-03T10:12:29.393Z,17156.00
2022-08-03T10:13:29.383Z,16682.00
2022-08-03T10:14:29.378Z,16655.00
2022-08-03T10:16:23.181Z,17448.00
2022-08-03T10:16:30.377Z,17681.00
2022-08-03T10:17:29.351Z,17825.00
2022-08-03T10:18:29.341Z,17881.00
2022-08-03T10:19:29.334Z,18001.00
2022-08-03T10:20:29.325Z,18133.00
2022-08-03T10:21:29.321Z,18204.00
2022-08-03T10:22:29.303Z,18324.00
2022-08-03T10:23:33.434Z,18435.00
2022-08-03T10:24:29.284Z,18520.00
2022-08-03T10:25:33.376Z,18756.00
2022-08-03T10:26:29.271Z,18996.00
2022-08-03T10:27:29.260Z,17096.00
2022-08-03T10:28:29.250Z,19433.00
2022-08-03T10:29:29.244Z,15636.00
2022-08-03T10:30:29.235Z,15337.00
2022-08-03T10:31:29.225Z,16924.00
2022-08-03T10:32:29.218Z,19630.00
2022-08-03T10:33:49.823Z,20012.00
2022-08-03T10:34:30.219Z,20024.00
2022-08-03T10:35:29.191Z,20452.00
2022-08-03T10:36:29.180Z,21002.00
2022-08-03T10:37:29.173Z,22655.00
2022-08-03T10:38:29.163Z,26549.00
2022-08-03T10:39:29.154Z,28013.00
2022-08-03T10:41:29.136Z,27312.00
2022-08-03T10:42:29.128Z,27432.00
2022-08-03T10:43:29.123Z,29345.00
2022-08-03T10:44:29.115Z,31805.00
2022-08-03T10:45:29.099Z,33055.00
2022-08-03T10:46:29.092Z,34014.00
2022-08-03T10:47:29.085Z,33733.00
2022-08-03T10:48:29.074Z,30863.00
2022-08-03T10:49:35.256Z,26518.00
2022-08-03T10:50:29.062Z,15884.00
2022-08-03T10:51:29.051Z,19682.00
2022-08-03T10:52:32.919Z,30446.00
2022-08-03T10:53:30.058Z,29337.00
2022-08-03T10:54:29.026Z,28116.00
2022-08-03T10:55:29.014Z,27733.00
2022-08-03T10:56:44.372Z,27488.00
2022-08-03T10:57:30.021Z,27529.00
2022-08-03T10:58:30.849Z,27671.00
2022-08-03T10:59:28.984Z,26507.00
2022-08-03T11:00:29.026Z,27888.00
2022-08-03T11:01:33.000Z,28496.00
2022-08-03T11:02:29.975Z,28496.00
2022-08-03T11:03:28.947Z,29293.00
2022-08-03T11:04:28.940Z,21504.00
2022-08-03T11:05:28.931Z,17930.00
2022-08-03T11:06:28.919Z,27900.00
2022-08-03T11:07:28.912Z,31189.00
2022-08-03T11:08:28.913Z,28136.00
2022-08-03T11:09:28.897Z,17860.00
2022-08-03T11:10:28.888Z,17519.00
2022-08-03T11:11:28.886Z,17530.00
2022-08-03T11:12:31.445Z,18313.00
2022-08-03T11:13:28.857Z,31666.00
2022-08-03T11:14:28.850Z,31139.00
2022-08-03T11:15:28.839Z,32067.00
2022-08-03T11:16:28.835Z,33051.00
2022-08-03T11:17:28.822Z,32420.00
2022-08-03T11:18:28.815Z,32862.00
2022-08-03T11:19:28.809Z,34157.00
2022-08-03T11:20:28.801Z,34575.00
2022-08-03T11:21:30.413Z,35226.00
2022-08-03T11:22:28.783Z,35485.00
2022-08-03T11:24:05.372Z,33128.00
2022-08-03T11:24:29.785Z,36110.00
2022-08-03T11:25:53.941Z,35444.00
2022-08-03T11:26:28.746Z,35302.00
2022-08-03T11:27:28.739Z,35426.00
2022-08-03T11:28:28.875Z,34703.00
2022-08-03T11:29:28.725Z,20653.00
2022-08-03T11:30:28.713Z,26514.00
2022-08-03T11:31:52.245Z,32535.00
2022-08-03T11:32:29.715Z,19417.00
2022-08-03T11:33:28.686Z,19072.00
2022-08-03T11:34:28.676Z,32176.00
2022-08-03T11:35:28.668Z,33625.00
2022-08-03T11:36:32.249Z,33878.00
2022-08-03T11:37:33.181Z,33894.00
2022-08-03T11:38:28.641Z,34438.00
2022-08-03T11:39:28.637Z,33779.00
2022-08-03T11:40:28.627Z,34129.00
2022-08-03T11:41:28.618Z,34890.00
2022-08-03T11:42:28.605Z,35803.00
2022-08-03T11:43:31.017Z,35824.00
2022-08-03T11:44:28.589Z,36637.00
2022-08-03T11:45:28.631Z,36445.00
2022-08-03T11:46:29.721Z,36232.00
2022-08-03T11:47:28.565Z,38107.00
2022-08-03T11:48:28.556Z,40015.00
2022-08-03T11:49:28.568Z,38718.00
2022-08-03T11:50:28.537Z,39057.00
2022-08-03T11:51:28.534Z,38136.00
2022-08-03T11:52:28.996Z,39444.00
2022-08-03T11:53:28.708Z,41179.00
2022-08-03T11:54:28.503Z,39080.00
2022-08-03T11:55:30.662Z,38644.00
2022-08-03T11:56:28.485Z,38376.00
2022-08-03T11:59:09.385Z,39313.00
2022-08-03T11:59:18.223Z,39601.00
2022-08-03T11:59:28.463Z,40961.00
2022-08-03T12:00:28.459Z,39000.00
2022-08-03T12:01:28.451Z,39503.00
2022-08-03T12:02:28.448Z,42009.00
2022-08-03T12:03:28.500Z,42009.00
2022-08-03T12:04:28.427Z,43848.00
2022-08-03T12:05:28.413Z,41777.00
2022-08-03T12:06:28.407Z,42118.00
2022-08-03T12:08:03.255Z,44417.00
2022-08-03T12:08:29.411Z,45031.00
2022-08-03T12:09:28.382Z,36210.00
2022-08-03T12:10:28.372Z,31029.00
2022-08-03T12:11:28.363Z,36571.00
2022-08-03T12:12:28.353Z,42416.00
2022-08-03T12:14:43.925Z,39684.00
2022-08-03T12:14:49.049Z,41645.00
2022-08-03T12:15:29.345Z,39871.00
2022-08-03T12:16:28.317Z,40946.00
2022-08-03T12:17:28.312Z,39683.00
2022-08-03T12:18:28.303Z,43570.00
2022-08-03T12:19:28.289Z,37456.00
2022-08-03T12:20:35.078Z,42228.00
2022-08-03T12:21:29.314Z,21415.00
2022-08-03T12:22:28.265Z,20409.00
2022-08-03T12:23:28.255Z,38867.00
2022-08-03T12:24:28.245Z,42555.00
2022-08-03T12:25:38.763Z,20355.00
2022-08-03T12:26:29.250Z,19639.00
2022-08-03T12:27:28.223Z,21754.00
2022-08-03T12:28:36.542Z,44728.00
2022-08-03T12:29:29.226Z,45090.00
2022-08-03T12:30:28.198Z,33784.00
2022-08-03T12:31:28.192Z,43386.00
2022-08-03T12:32:28.179Z,21264.00
2022-08-03T12:33:28.173Z,20980.00
2022-08-03T12:34:30.931Z,20999.00
2022-08-03T12:35:28.159Z,21153.00
2022-08-03T12:36:28.157Z,21300.00
2022-08-03T12:37:28.140Z,47212.00
2022-08-03T12:38:29.647Z,48839.00
2022-08-03T12:39:28.119Z,48425.00
2022-08-03T12:40:28.559Z,52891.00
2022-08-03T12:41:28.104Z,51798.00
2022-08-03T12:42:28.095Z,55405.00
2022-08-03T12:43:28.087Z,47364.00
2022-08-03T12:44:28.082Z,50145.00
2022-08-03T12:45:28.076Z,55135.00
2022-08-03T12:46:28.060Z,56716.00
2022-08-03T12:47:28.056Z,56564.00
2022-08-03T12:48:28.093Z,56924.00
2022-08-03T12:49:28.186Z,52808.00
2022-08-03T12:50:28.037Z,56217.00
2022-08-03T12:53:04.478Z,54429.00
2022-08-03T12:53:08.069Z,54280.00
2022-08-03T12:54:05.865Z,51173.00
2022-08-03T12:55:05.858Z,53045.00
2022-08-03T12:56:06.336Z,54733.00
2022-08-03T12:57:05.846Z,56554.00
2022-08-03T12:58:05.838Z,56715.00
2022-08-03T12:59:40.329Z,53788.00
2022-08-03T13:03:39.344Z,53066.00
2022-08-03T13:03:41.926Z,52468.00
2022-08-03T13:04:36.746Z,53157.00
2022-08-03T13:05:36.736Z,56311.00
2022-08-03T13:06:36.733Z,52969.00
2022-08-03T13:18:09.378Z,56706.00
2022-08-03T13:18:10.754Z,56317.00
2022-08-03T13:19:17.392Z,50200.00
2022-08-03T13:20:10.737Z,24196.00
2022-08-03T13:21:10.728Z,43599.00
2022-08-03T13:22:45.689Z,58845.00
2022-08-03T13:23:50.548Z,55772.00
2022-08-03T13:29:52.713Z,52954.00
2022-08-03T13:29:54.124Z,53157.00
2022-08-03T13:31:36.059Z,50687.00
2022-08-03T13:32:07.648Z,49987.00
2022-08-03T13:32:54.099Z,32915.00
2022-08-03T13:33:54.093Z,44359.00
2022-08-03T13:34:54.087Z,26238.00
2022-08-03T13:35:54.078Z,30622.00
2022-08-03T13:37:10.137Z,24451.00
2022-08-03T13:37:55.153Z,25849.00
2022-08-03T13:38:54.052Z,32247.00
2022-08-03T13:39:59.328Z,31021.00
2022-08-03T13:40:54.037Z,38950.00
2022-08-03T13:41:54.030Z,29076.00
2022-08-03T13:42:54.019Z,25426.00
2022-08-03T13:44:12.054Z,24800.00
2022-08-03T13:44:55.027Z,24638.00
2022-08-03T13:45:57.991Z,24467.00
2022-08-03T13:46:53.984Z,24676.00
2022-08-03T13:47:53.977Z,24945.00
2022-08-03T13:48:53.965Z,39777.00
2022-08-03T13:49:59.364Z,44067.00
2022-08-03T14:02:28.555Z,44501.00
2022-08-03T14:02:30.064Z,44049.00
2022-08-03T14:03:29.986Z,27351.00
2022-08-03T14:04:29.979Z,56097.00
2022-08-03T14:07:14.742Z,51514.00
2022-08-03T14:07:16.144Z,50373.00
2022-08-03T16:04:46.491Z,43882.00
2022-08-03T16:04:48.602Z,43991.00
2022-08-03T16:05:47.862Z,44231.00
2022-08-03T16:06:47.858Z,46962.00
2022-08-03T16:14:44.901Z,38423.00
2022-08-03T16:14:52.525Z,38075.00
2022-08-03T16:15:43.995Z,36674.00
2022-08-03T16:17:19.449Z,50035.00
2022-08-03T16:17:42.961Z,41757.00
2022-08-03T16:18:42.949Z,35869.00
2022-08-03T16:19:42.941Z,41412.00
2022-08-03T16:20:42.937Z,35367.00
2022-08-03T16:21:48.555Z,38833.00
2022-08-03T16:22:43.940Z,39794.00
2022-08-03T16:23:42.907Z,38010.00
2022-08-03T16:24:42.901Z,36615.00
2022-08-03T16:25:42.894Z,36349.00
2022-08-03T16:26:42.882Z,29871.00
2022-08-03T16:28:03.316Z,41409.00
2022-08-03T16:28:43.890Z,41473.00
2022-08-03T16:29:42.861Z,39803.00
2022-08-03T16:30:42.856Z,38476.00
2022-08-03T16:31:51.117Z,39729.00
2022-08-03T16:32:43.862Z,38831.00
2022-08-03T16:33:42.831Z,39385.00
2022-08-03T16:34:42.820Z,33095.00
2022-08-03T16:35:42.811Z,38476.00
2022-08-03T16:36:42.807Z,39316.00
2022-08-03T16:37:51.764Z,34725.00
2022-08-03T16:38:43.810Z,29448.00
2022-08-03T16:39:42.779Z,30970.00
2022-08-03T16:40:42.770Z,31866.00
2022-08-03T16:42:00.437Z,28332.00
2022-08-03T16:42:42.754Z,31016.00
2022-08-03T16:43:42.744Z,31060.00
2022-08-03T16:44:42.737Z,31754.00
2022-08-03T16:45:42.731Z,25680.00
2022-08-03T16:46:42.719Z,28423.00
2022-08-03T16:47:42.709Z,27886.00
2022-08-03T16:48:42.703Z,28236.00
2022-08-03T16:49:54.297Z,28020.00
2022-08-03T16:50:43.705Z,25972.00
2022-08-03T16:51:50.456Z,27848.00
2022-08-03T16:52:42.666Z,27628.00
2022-08-03T16:54:05.520Z,25431.00
2022-08-03T16:54:43.678Z,24677.00
2022-08-03T16:55:52.292Z,24911.00
2022-08-03T16:56:42.636Z,22432.00
2022-08-03T16:57:58.539Z,23984.00
2022-08-03T16:58:44.446Z,24572.00
2022-08-03T16:59:42.610Z,21954.00
2022-08-03T17:00:42.610Z,19602.00
2022-08-03T17:01:42.778Z,19530.00
2022-08-03T17:02:48.071Z,20673.00
2022-08-03T17:04:01.765Z,18622.00
2022-08-03T17:04:43.589Z,15834.00
2022-08-03T17:05:47.220Z,18960.00
2022-08-03T17:06:45.048Z,18468.00
2022-08-03T17:07:42.540Z,18127.00
2022-08-03T17:08:42.534Z,17643.00
2022-08-03T17:09:43.544Z,19940.00
2022-08-03T17:10:42.515Z,17917.00
2022-08-03T17:11:44.135Z,14874.00
2022-08-03T17:12:42.499Z,13259.00
2022-08-03T17:13:42.491Z,12450.00
2022-08-03T17:14:42.485Z,13532.00
2022-08-03T17:15:58.229Z,12869.00
2022-08-03T17:16:52.100Z,11466.00
2022-08-03T17:17:53.497Z,12863.00
2022-08-03T17:18:49.513Z,14128.00
2022-08-03T17:19:47.227Z,12226.00
2022-08-03T17:20:42.671Z,12988.00
2022-08-03T17:21:42.418Z,11010.00
2022-08-03T17:22:43.431Z,11804.00
2022-08-03T17:23:42.401Z,10437.00
2022-08-03T17:24:42.420Z,10626.00
2022-08-03T17:26:02.038Z,11728.00
2022-08-03T17:26:43.470Z,9606.00
2022-08-03T17:28:48.175Z,9955.00
2022-08-03T17:28:50.190Z,10057.00
2022-08-03T17:29:45.182Z,10518.00
2022-08-03T17:30:42.343Z,8860.00
2022-08-03T17:31:48.827Z,8715.00
2022-08-03T17:32:53.499Z,8858.00
2022-08-03T17:33:43.336Z,8089.00
2022-08-03T17:34:43.327Z,9335.00
2022-08-03T17:35:42.295Z,8192.00
2022-08-03T17:37:03.284Z,7625.00
2022-08-03T17:37:57.947Z,7699.00
2022-08-03T17:38:43.287Z,7430.00
2022-08-03T17:39:58.075Z,6992.00
2022-08-03T17:40:50.023Z,7659.00
2022-08-03T17:41:49.064Z,6984.00
2022-08-03T17:42:43.301Z,6999.00
2022-08-03T17:44:13.909Z,6514.00
2022-08-03T17:44:46.514Z,6461.00
2022-08-03T17:45:52.991Z,6316.00
2022-08-03T17:46:43.221Z,6309.00
2022-08-03T17:47:43.664Z,5991.00
2022-08-03T17:48:42.272Z,5867.00
2022-08-03T17:49:42.170Z,5519.00
2022-08-03T17:50:42.162Z,5195.00
2022-08-03T17:51:46.407Z,5360.00
2022-08-03T17:52:43.163Z,5290.00
2022-08-03T17:53:42.134Z,5472.00
2022-08-03T17:55:56.227Z,4940.00
2022-08-03T17:55:58.553Z,5253.00
2022-08-03T17:56:46.464Z,4978.00
2022-08-03T17:58:02.695Z,4835.00
2022-08-03T17:58:42.092Z,4829.00
2022-08-03T17:59:51.336Z,4606.00